createdAt,value
2022-12-29T10:55:39.188Z,11.42
2022-12-29T10:57:19.177Z,11.47
2022-12-29T10:58:53.649Z,11.49
2022-12-29T11:00:26.913Z,11.58
2022-12-29T11:02:18.497Z,11.63
2022-12-29T11:04:03.128Z,11.66
2022-12-29T11:05:41.668Z,11.65
2022-12-29T11:07:19.872Z,11.76
2022-12-29T11:08:58.899Z,11.83
2022-12-29T11:10:40.856Z,11.88
2022-12-29T11:12:26.531Z,11.93
2022-12-29T11:14:04.053Z,11.96
2022-12-29T11:15:42.776Z,11.99
2022-12-29T11:17:18.277Z,12.03
2022-12-29T11:18:52.524Z,12.08
2022-12-29T11:20:35.659Z,12.14
2022-12-29T11:22:17.068Z,12.11
2022-12-29T11:23:59.109Z,12.06
2022-12-29T11:25:32.394Z,12.31
2022-12-29T11:27:18.587Z,12.35
2022-12-29T11:29:22.292Z,12.38
2022-12-29T11:31:01.962Z,12.44
2022-12-29T11:32:36.095Z,12.51
2022-12-29T11:34:09.808Z,12.54
2022-12-29T11:35:45.582Z,12.60
2022-12-29T11:37:20.794Z,12.58
2022-12-29T11:38:58.436Z,12.61
2022-12-29T11:40:32.707Z,12.60
2022-12-29T11:42:10.565Z,12.58
2022-12-29T11:43:48.682Z,12.60
2022-12-29T11:45:25.094Z,12.62
2022-12-29T11:46:59.011Z,12.64
2022-12-29T11:48:35.884Z,12.72
2022-12-29T11:50:10.414Z,12.74
2022-12-29T11:51:48.903Z,12.76
2022-12-29T11:53:25.863Z,12.79
2022-12-29T11:55:00.971Z,12.80
2022-12-29T11:56:40.728Z,12.82
2022-12-29T11:58:18.069Z,12.81
2022-12-29T11:59:57.166Z,12.82
2022-12-29T12:01:41.110Z,12.87
2022-12-29T12:03:22.627Z,12.90
2022-12-29T12:05:02.856Z,12.92
2022-12-29T12:06:41.796Z,12.95
2022-12-29T12:08:22.622Z,12.97
2022-12-29T12:10:07.015Z,13.00
2022-12-29T12:11:46.584Z,13.02
2022-12-29T12:13:28.193Z,13.02
2022-12-29T12:15:05.633Z,13.04
2022-12-29T12:16:55.654Z,13.09
2022-12-29T12:18:40.498Z,13.06
2022-12-29T12:20:22.993Z,13.12
2022-12-29T12:22:02.600Z,13.14
2022-12-29T12:23:47.341Z,13.20
2022-12-29T12:25:25.444Z,13.24
2022-12-29T12:27:03.854Z,13.26
2022-12-29T12:28:42.840Z,13.27
2022-12-29T12:30:21.465Z,13.27
2022-12-29T12:32:00.038Z,13.31
2022-12-29T12:33:39.906Z,13.33
2022-12-29T12:35:21.368Z,13.31
2022-12-29T12:37:20.129Z,13.39
2022-12-29T12:39:01.195Z,13.42
2022-12-29T12:40:49.461Z,13.45
2022-12-29T12:42:39.568Z,13.48
2022-12-29T12:44:21.848Z,13.50
2022-12-29T12:46:12.168Z,13.51
2022-12-29T12:48:02.973Z,13.55
2022-12-29T12:49:54.917Z,13.52
2022-12-29T12:51:40.127Z,13.57
2022-12-29T12:53:39.041Z,13.61
2022-12-29T12:55:44.744Z,13.65
2022-12-29T12:57:24.996Z,13.67
2022-12-29T12:59:09.810Z,13.65
2022-12-29T13:00:57.563Z,13.66
2022-12-29T13:02:40.600Z,13.70
2022-12-29T13:04:46.487Z,13.70
2022-12-29T13:06:31.063Z,13.70
2022-12-29T13:08:46.058Z,13.73
2022-12-29T13:10:31.585Z,13.72
2022-12-29T13:12:19.425Z,13.75
2022-12-29T13:14:12.397Z,13.75
2022-12-29T13:15:53.365Z,13.76
2022-12-29T13:17:32.663Z,13.73
2022-12-29T13:19:16.057Z,13.74
2022-12-29T13:20:56.090Z,13.76
2022-12-29T13:22:36.580Z,13.78
2022-12-29T13:24:18.447Z,13.77
2022-12-29T13:25:58.127Z,13.77
2022-12-29T13:27:39.864Z,13.77
2022-12-29T13:29:20.924Z,13.79
2022-12-29T13:31:03.030Z,13.80
2022-12-29T13:32:55.907Z,13.81
2022-12-29T13:34:40.800Z,13.84
2022-12-29T13:36:24.818Z,13.86
2022-12-29T13:38:03.139Z,13.86
2022-12-29T13:39:39.975Z,13.86
2022-12-29T13:41:18.937Z,13.87
2022-12-29T13:42:53.776Z,13.86
2022-12-29T13:44:36.346Z,13.85
2022-12-29T13:46:15.245Z,13.83
2022-12-29T13:47:55.217Z,13.82
2022-12-29T13:49:29.821Z,13.81
2022-12-29T13:51:05.284Z,13.80
2022-12-29T13:52:43.207Z,13.79
2022-12-29T13:54:23.807Z,13.76
2022-12-29T13:56:06.840Z,13.73
2022-12-29T13:57:49.826Z,13.68
2022-12-29T13:59:29.873Z,13.64
2022-12-29T14:01:10.660Z,13.59
2022-12-29T14:03:02.102Z,13.54
2022-12-29T14:04:36.158Z,13.49
2022-12-29T14:06:21.597Z,13.47
2022-12-29T14:08:00.671Z,13.43
2022-12-29T14:09:47.368Z,13.35
2022-12-29T14:11:25.499Z,13.25
2022-12-29T14:13:06.232Z,13.21
2022-12-29T14:14:41.110Z,13.15
2022-12-29T14:16:32.413Z,13.13
2022-12-29T14:18:16.608Z,13.05
2022-12-29T14:19:55.551Z,13.13
2022-12-29T14:21:31.370Z,13.13
2022-12-29T14:23:19.904Z,13.04
2022-12-29T14:24:53.319Z,13.04
2022-12-29T14:26:38.887Z,13.02
2022-12-29T14:28:24.675Z,13.00
2022-12-29T14:29:57.931Z,12.97
2022-12-29T14:31:42.308Z,12.92
2022-12-29T14:33:16.919Z,12.86
2022-12-29T14:34:52.826Z,12.84
2022-12-29T14:36:35.285Z,12.78
2022-12-29T14:38:28.315Z,12.72
2022-12-29T14:40:07.823Z,12.64
2022-12-29T14:41:42.218Z,12.56
2022-12-29T14:43:20.414Z,12.42
2022-12-29T14:44:58.480Z,12.33
2022-12-29T14:46:46.985Z,12.23
2022-12-29T14:48:42.936Z,12.14
2022-12-29T14:50:18.944Z,12.08
2022-12-29T14:51:55.558Z,11.99
2022-12-29T14:53:48.464Z,11.93
2022-12-29T14:55:39.549Z,11.90
2022-12-29T14:57:34.983Z,11.81
2022-12-29T14:59:13.181Z,11.75
2022-12-29T15:00:47.723Z,11.66
2022-12-29T15:02:27.658Z,11.58
2022-12-29T15:04:07.343Z,11.51
2022-12-29T15:05:47.133Z,11.45
2022-12-29T15:07:21.826Z,11.36
2022-12-29T15:09:02.878Z,11.29
2022-12-29T15:10:45.371Z,11.25
2022-12-29T15:12:24.790Z,11.19
2022-12-29T15:13:58.511Z,11.11
2022-12-29T15:15:38.555Z,11.06
2022-12-29T15:17:24.579Z,11.02
2022-12-29T15:18:58.177Z,10.97
2022-12-29T15:20:32.948Z,10.87
2022-12-29T15:22:06.600Z,10.81
2022-12-29T15:23:40.304Z,10.73
2022-12-29T15:25:18.665Z,10.71
2022-12-29T15:26:53.963Z,10.64
2022-12-29T15:28:28.653Z,10.59
2022-12-29T15:30:03.780Z,10.56
2022-12-29T15:31:49.233Z,10.50
2022-12-29T15:33:25.286Z,10.48
2022-12-29T15:35:01.204Z,10.43
2022-12-29T15:36:40.561Z,10.30
2022-12-29T15:38:18.421Z,10.22
2022-12-29T15:39:52.241Z,10.14
2022-12-29T15:41:55.554Z,10.10
2022-12-29T15:43:49.380Z,10.02
2022-12-29T15:45:23.145Z,9.98
2022-12-29T15:46:56.971Z,9.92
2022-12-29T15:48:30.896Z,9.88
2022-12-29T15:50:07.925Z,9.84
2022-12-29T15:51:42.810Z,9.81
2022-12-29T15:53:25.810Z,9.78
2022-12-29T15:55:01.550Z,9.77
2022-12-29T15:56:36.230Z,9.74
2022-12-29T15:58:22.345Z,9.73
2022-12-29T15:59:56.039Z,9.77
2022-12-29T16:01:32.496Z,9.75
2022-12-29T16:03:08.770Z,9.75
2022-12-29T16:05:09.297Z,9.75
2022-12-29T16:06:39.760Z,9.76
2022-12-29T16:08:29.936Z,9.73
2022-12-29T16:10:04.241Z,9.75
2022-12-29T16:11:40.961Z,9.73
2022-12-29T16:13:40.499Z,9.68
2022-12-29T16:15:16.418Z,9.67
2022-12-29T16:16:51.726Z,9.64
2022-12-29T16:18:29.429Z,9.63
2022-12-29T16:20:17.973Z,9.57
2022-12-29T16:21:52.313Z,9.59
2022-12-29T16:23:29.133Z,9.55
2022-12-29T16:25:05.695Z,9.55
2022-12-29T16:26:40.249Z,9.57
2022-12-29T16:28:20.898Z,9.55
2022-12-29T16:29:58.467Z,9.55
2022-12-29T16:31:37.291Z,9.53
2022-12-29T16:33:48.987Z,9.49
2022-12-29T16:35:24.715Z,9.47
2022-12-29T16:36:59.654Z,9.44
2022-12-29T16:38:35.728Z,9.43
2022-12-29T16:40:32.463Z,9.33
2022-12-29T16:42:38.528Z,9.20
2022-12-29T16:44:37.959Z,9.11
2022-12-29T16:46:29.493Z,9.03
2022-12-29T16:48:20.955Z,8.95
2022-12-29T16:50:15.529Z,8.83
2022-12-29T16:51:49.824Z,8.73
2022-12-29T16:53:27.400Z,8.66
2022-12-29T16:55:02.353Z,8.60
2022-12-29T16:56:39.776Z,8.54
2022-12-29T16:58:20.692Z,8.45
2022-12-29T16:59:57.275Z,8.40
2022-12-29T17:01:31.771Z,8.36
2022-12-29T17:03:05.903Z,8.27
2022-12-29T17:04:39.508Z,8.23
2022-12-29T17:06:17.216Z,8.20
2022-12-29T17:07:52.325Z,8.15
2022-12-29T17:09:27.512Z,8.09
2022-12-29T17:11:18.708Z,8.02
2022-12-29T17:12:52.154Z,7.96
2022-12-29T17:14:45.454Z,7.93
2022-12-29T17:16:19.010Z,7.88
2022-12-29T17:17:55.765Z,7.85
2022-12-29T17:19:35.118Z,7.86
2022-12-29T17:21:11.094Z,7.82
2022-12-29T17:22:47.378Z,7.78
2022-12-29T17:24:20.929Z,7.72
2022-12-29T17:25:55.487Z,7.67
2022-12-29T17:27:32.532Z,7.59
2022-12-29T17:29:05.780Z,7.56
2022-12-29T17:30:42.284Z,7.47
2022-12-29T17:32:16.723Z,7.35
2022-12-29T17:33:50.316Z,7.30
2022-12-29T17:35:24.245Z,7.21
2022-12-29T17:36:56.409Z,7.15
2022-12-29T17:38:36.038Z,7.16
2022-12-29T17:40:15.403Z,7.13
2022-12-29T17:41:49.296Z,7.11
2022-12-29T17:43:23.316Z,7.11
2022-12-29T17:44:57.359Z,7.04
2022-12-29T17:46:31.983Z,7.03
2022-12-29T17:48:12.924Z,6.96
2022-12-29T17:49:47.967Z,6.93
2022-12-29T17:51:23.933Z,6.91
2022-12-29T17:53:01.581Z,6.85
2022-12-29T17:54:36.140Z,6.78
2022-12-29T17:56:10.338Z,6.72
2022-12-29T17:57:46.594Z,6.68
2022-12-29T17:59:20.778Z,6.63
2022-12-29T18:00:55.999Z,6.56
2022-12-29T18:02:32.717Z,6.53
2022-12-29T18:04:06.542Z,6.48
2022-12-29T18:05:40.006Z,6.45
2022-12-29T18:07:13.405Z,6.45
2022-12-29T18:08:46.595Z,6.41
2022-12-29T18:10:20.478Z,6.41
2022-12-29T18:11:54.020Z,6.39
2022-12-29T18:13:41.851Z,6.35
2022-12-29T18:15:21.838Z,6.33
2022-12-29T18:16:56.584Z,6.29
2022-12-29T18:18:31.329Z,6.24
2022-12-29T18:20:05.161Z,6.16
2022-12-29T18:21:41.186Z,6.09
2022-12-29T18:23:21.347Z,6.03
2022-12-29T18:24:54.736Z,6.00
2022-12-29T18:26:31.978Z,5.97
2022-12-29T18:28:05.729Z,5.97
2022-12-29T18:29:39.449Z,5.89
2022-12-29T18:31:19.790Z,5.81
2022-12-29T18:32:55.771Z,5.75
2022-12-29T18:34:30.898Z,5.71
2022-12-29T18:36:06.919Z,5.73
2022-12-29T18:37:40.658Z,5.72
2022-12-29T18:39:14.491Z,5.64
2022-12-29T18:40:49.048Z,5.64
2022-12-29T18:42:22.501Z,5.58
2022-12-29T18:43:59.047Z,5.56
2022-12-29T18:45:34.776Z,5.54
2022-12-29T18:47:08.510Z,5.48
2022-12-29T18:48:42.324Z,5.46
2022-12-29T18:50:17.826Z,5.48
2022-12-29T18:51:51.131Z,5.45
2022-12-29T18:53:26.081Z,5.27
2022-12-29T18:54:59.314Z,5.36
2022-12-29T18:56:32.697Z,5.39
2022-12-29T18:58:06.693Z,5.41
2022-12-29T18:59:41.403Z,5.43
2022-12-29T19:01:22.639Z,5.45
2022-12-29T19:02:56.792Z,5.42
2022-12-29T19:04:31.141Z,5.45
2022-12-29T19:06:06.587Z,5.37
2022-12-29T19:07:39.916Z,5.34
2022-12-29T19:09:14.017Z,5.28
2022-12-29T19:10:48.161Z,5.16
2022-12-29T19:12:26.545Z,5.08
2022-12-29T19:14:01.663Z,5.06
2022-12-29T19:15:38.459Z,5.04
2022-12-29T19:17:13.587Z,5.02
2022-12-29T19:18:58.241Z,4.97
2022-12-29T19:20:43.387Z,4.82
2022-12-29T19:22:18.341Z,4.84
2022-12-29T19:23:52.203Z,4.77
2022-12-29T19:25:26.190Z,4.71
2022-12-29T19:26:59.700Z,4.69
2022-12-29T19:28:33.479Z,4.68
2022-12-29T19:30:07.819Z,4.63
2022-12-29T19:31:41.584Z,4.62
2022-12-29T19:33:15.542Z,4.61
2022-12-29T19:34:50.174Z,4.59
2022-12-29T19:36:25.381Z,4.62
2022-12-29T19:38:00.535Z,4.58
2022-12-29T19:39:33.885Z,4.48
2022-12-29T19:41:09.154Z,4.47
2022-12-29T19:42:42.420Z,4.44
2022-12-29T19:44:17.656Z,4.41
2022-12-29T19:45:51.524Z,4.34
2022-12-29T19:47:30.056Z,4.25
2022-12-29T19:49:04.961Z,4.23
2022-12-29T19:50:39.258Z,4.24
2022-12-29T19:52:12.664Z,4.26
2022-12-29T19:53:48.437Z,4.24
2022-12-29T19:55:21.893Z,4.24
2022-12-29T19:56:55.222Z,4.25
2022-12-29T19:58:28.549Z,4.19
2022-12-29T20:00:01.758Z,4.04
2022-12-29T20:01:45.429Z,4.02
2022-12-29T20:03:19.410Z,4.02
2022-12-29T20:04:52.825Z,4.03
2022-12-29T20:06:26.041Z,3.99
2022-12-29T20:07:59.345Z,3.94
2022-12-29T20:09:34.346Z,3.94
2022-12-29T20:11:09.760Z,3.89
2022-12-29T20:12:43.126Z,3.73
2022-12-29T20:14:16.301Z,3.72
2022-12-29T20:15:49.934Z,3.75
2022-12-29T20:17:54.050Z,3.77
2022-12-29T20:19:19.666Z,3.70
2022-12-29T20:20:53.151Z,3.62
2022-12-29T20:22:26.576Z,3.70
2022-12-29T20:23:59.895Z,3.66
2022-12-29T20:25:49.841Z,3.53
2022-12-29T20:27:23.415Z,3.51
2022-12-29T20:28:58.759Z,3.45
2022-12-29T20:30:31.894Z,3.47
2022-12-29T20:32:05.513Z,3.45
2022-12-29T20:33:39.217Z,3.44
2022-12-29T20:35:13.938Z,3.47
2022-12-29T20:36:49.258Z,3.48
2022-12-29T20:38:22.953Z,3.50
2022-12-29T20:39:56.462Z,3.49
2022-12-29T20:41:31.886Z,3.44
2022-12-29T20:43:05.118Z,3.44
2022-12-29T20:44:38.995Z,3.47
2022-12-29T20:46:20.263Z,3.52
2022-12-29T20:47:54.876Z,3.53
2022-12-29T20:49:28.629Z,3.54
2022-12-29T20:51:02.021Z,3.53
2022-12-29T20:52:35.588Z,3.55
2022-12-29T20:54:08.864Z,3.55
2022-12-29T20:55:42.086Z,3.51
2022-12-29T20:57:16.866Z,3.45
2022-12-29T21:00:44.635Z,3.32
2022-12-29T21:02:20.779Z,3.28
2022-12-29T21:03:54.723Z,3.22
2022-12-29T21:05:28.879Z,3.18
2022-12-29T21:07:02.099Z,3.13
2022-12-29T21:08:36.414Z,3.10
2022-12-29T21:10:09.962Z,3.11
2022-12-29T21:11:43.096Z,3.09
2022-12-29T21:13:18.405Z,3.07
2022-12-29T21:14:51.620Z,3.00
2022-12-29T21:16:24.873Z,2.90
2022-12-29T21:17:58.362Z,2.86
2022-12-29T21:19:31.042Z,2.79
2022-12-29T21:21:07.014Z,2.75
2022-12-29T21:22:40.462Z,2.75
2022-12-29T21:24:13.668Z,2.67
2022-12-29T21:25:46.770Z,2.77
2022-12-29T21:27:20.104Z,2.74
2022-12-29T21:28:55.399Z,2.69
2022-12-29T21:30:28.625Z,2.70
2022-12-29T21:32:06.376Z,2.66
2022-12-29T21:33:40.321Z,2.64
2022-12-29T21:35:13.720Z,2.65
2022-12-29T21:36:46.850Z,2.66
2022-12-29T21:38:19.989Z,2.62
2022-12-29T21:39:53.154Z,2.57
2022-12-29T21:41:26.924Z,2.57
2022-12-29T21:43:00.398Z,2.55
2022-12-29T21:44:48.797Z,2.51
2022-12-29T21:46:24.449Z,2.51
2022-12-29T21:48:17.500Z,2.53
2022-12-29T21:49:50.622Z,2.54
2022-12-29T21:51:41.088Z,2.50
2022-12-29T21:53:14.543Z,2.47
2022-12-29T21:55:01.440Z,2.44
2022-12-29T21:56:34.823Z,2.43
2022-12-29T21:58:25.325Z,2.41
2022-12-29T22:00:17.580Z,2.46
2022-12-29T22:02:08.429Z,2.46
2022-12-29T22:03:59.398Z,2.46
2022-12-29T22:05:50.016Z,2.40
2022-12-29T22:07:41.000Z,2.32
2022-12-29T22:09:31.548Z,2.41
2022-12-29T22:11:25.949Z,2.37
2022-12-29T22:13:01.047Z,2.29
2022-12-29T22:14:34.266Z,2.33
2022-12-29T22:16:11.577Z,2.27
2022-12-29T22:17:48.739Z,2.29
2022-12-29T22:19:22.706Z,2.34
2022-12-29T22:20:55.837Z,2.34
2022-12-29T22:22:29.023Z,2.38
2022-12-29T22:24:02.111Z,2.34
2022-12-29T22:25:35.556Z,2.33
2022-12-29T22:27:07.742Z,2.36
2022-12-29T22:28:43.210Z,2.35
2022-12-29T22:30:16.421Z,2.34
2022-12-29T22:31:51.118Z,2.33
2022-12-29T22:33:24.355Z,2.30
2022-12-29T22:34:58.361Z,2.26
2022-12-29T22:36:32.466Z,2.24
2022-12-29T22:38:05.800Z,2.22
2022-12-29T22:39:38.919Z,2.20
2022-12-29T22:41:12.101Z,2.21
2022-12-29T22:42:44.259Z,2.25
2022-12-29T22:44:17.787Z,2.22
2022-12-29T22:45:50.944Z,2.17
2022-12-29T22:47:26.016Z,2.14
2022-12-29T22:48:59.421Z,2.10
2022-12-29T22:50:32.865Z,2.05
2022-12-29T22:52:06.752Z,2.09
2022-12-29T22:53:41.060Z,2.09
2022-12-29T22:55:14.253Z,2.04
2022-12-29T22:56:47.800Z,2.02
2022-12-29T22:58:20.965Z,2.01
2022-12-29T22:59:54.175Z,1.98
2022-12-29T23:01:27.525Z,1.95
2022-12-29T23:03:02.599Z,1.99
2022-12-29T23:06:30.655Z,1.96
2022-12-29T23:08:04.103Z,1.95
2022-12-29T23:09:37.241Z,1.91
2022-12-29T23:11:12.428Z,1.91
2022-12-29T23:12:45.808Z,1.91
2022-12-29T23:14:18.255Z,1.92
2022-12-29T23:15:51.481Z,1.93
2022-12-29T23:17:25.393Z,1.89
2022-12-29T23:18:59.980Z,1.88
2022-12-29T23:20:36.745Z,1.91
2022-12-29T23:22:09.902Z,1.88
2022-12-29T23:23:53.847Z,1.89
2022-12-29T23:25:27.004Z,1.90
2022-12-29T23:26:59.391Z,1.85
2022-12-29T23:28:32.975Z,1.89
2022-12-29T23:30:07.468Z,1.88
2022-12-29T23:31:41.566Z,1.88
2022-12-29T23:33:14.807Z,1.77
2022-12-29T23:34:49.373Z,1.87
2022-12-29T23:36:23.399Z,1.82
2022-12-29T23:37:56.608Z,1.76
2022-12-29T23:39:29.756Z,1.70
2022-12-29T23:41:01.929Z,1.66
2022-12-29T23:42:35.035Z,1.66
2022-12-29T23:44:08.616Z,1.60
2022-12-29T23:45:46.040Z,1.66
2022-12-29T23:47:22.493Z,1.66
2022-12-29T23:48:56.295Z,1.65
2022-12-29T23:50:31.036Z,1.64
2022-12-29T23:52:04.233Z,1.63
2022-12-29T23:53:39.788Z,1.56
2022-12-29T23:55:13.115Z,1.50
2022-12-29T23:56:46.256Z,1.48
2022-12-29T23:58:19.387Z,1.45
2022-12-29T23:59:52.637Z,1.49
